sensor_id;sensor_type;location;lat;lon;timestamp;pressure;altitude;pressure_sealevel;temperature;humidity
4972;BME280;2501;51.214;6.768;2023-02-01T00:01:25;101769.09;;;6.42;94.08
4972;BME280;2501;51.214;6.768;2023-02-01T00:03:53;101775.25;;;6.44;94.71
4972;BME280;2501;51.214;6.768;2023-02-01T00:06:22;101771.22;;;6.07;95.54
4972;BME280;2501;51.214;6.768;2023-02-01T00:08:52;101776.81;;;6.16;96.76
4972;BME280;2501;51.214;6.768;2023-02-01T00:11:24;101769.75;;;6.14;97.35
4972;BME280;2501;51.214;6.768;2023-02-01T00:13:53;101770.03;;;5.99;97.81
4972;BME280;2501;51.214;6.768;2023-02-01T00:16:24;101769.59;;;5.88;98.60
4972;BME280;2501;51.214;6.768;2023-02-01T00:18:58;101768.00;;;5.92;99.44
4972;BME280;2501;51.214;6.768;2023-02-01T00:21:27;101760.84;;;6.09;99.23
4972;BME280;2501;51.214;6.768;2023-02-01T00:23:56;101749.22;;;6.21;99.03
4972;BME280;2501;51.214;6.768;2023-02-01T00:26:31;101741.16;;;6.15;99.01
4972;BME280;2501;51.214;6.768;2023-02-01T00:29:01;101750.34;;;6.28;99.11
4972;BME280;2501;51.214;6.768;2023-02-01T00:31:31;101747.16;;;6.35;98.80
4972;BME280;2501;51.214;6.768;2023-02-01T00:33:59;101745.16;;;6.07;99.14
4972;BME280;2501;51.214;6.768;2023-02-01T00:36:28;101735.91;;;5.93;99.39
4972;BME280;2501;51.214;6.768;2023-02-01T00:38:56;101742.38;;;6.25;99.37
4972;BME280;2501;51.214;6.768;2023-02-01T00:41:28;101742.34;;;6.23;99.21
4972;BME280;2501;51.214;6.768;2023-02-01T00:43:56;101748.44;;;6.24;99.16
4972;BME280;2501;51.214;6.768;2023-02-01T00:46:25;101742.38;;;6.25;98.13
4972;BME280;2501;51.214;6.768;2023-02-01T00:48:54;101722.94;;;6.15;97.73
4972;BME280;2501;51.214;6.768;2023-02-01T00:51:24;101719.09;;;6.06;97.28
4972;BME280;2501;51.214;6.768;2023-02-01T00:53:53;101716.09;;;5.76;97.36
4972;BME280;2501;51.214;6.768;2023-02-01T00:56:22;101705.00;;;6.01;96.84
4972;BME280;2501;51.214;6.768;2023-02-01T00:58:53;101697.81;;;5.95;96.25
4972;BME280;2501;51.214;6.768;2023-02-01T01:01:23;101693.19;;;5.88;96.56
4972;BME280;2501;51.214;6.768;2023-02-01T01:03:53;101706.25;;;5.89;95.18
4972;BME280;2501;51.214;6.768;2023-02-01T01:06:24;101713.81;;;5.83;94.02
4972;BME280;2501;51.214;6.768;2023-02-01T01:08:54;101707.03;;;5.87;93.20
4972;BME280;2501;51.214;6.768;2023-02-01T01:11:23;101710.63;;;5.90;91.92
4972;BME280;2501;51.214;6.768;2023-02-01T01:13:56;101727.09;;;5.89;90.79
4972;BME280;2501;51.214;6.768;2023-02-01T01:16:27;101727.16;;;5.91;90.17
4972;BME280;2501;51.214;6.768;2023-02-01T01:18:56;101724.34;;;5.86;89.49
4972;BME280;2501;51.214;6.768;2023-02-01T01:21:25;101730.38;;;5.85;89.44
4972;BME280;2501;51.214;6.768;2023-02-01T01:23:53;101733.81;;;5.84;87.92
4972;BME280;2501;51.214;6.768;2023-02-01T01:26:24;101732.03;;;5.83;87.19
4972;BME280;2501;51.214;6.768;2023-02-01T01:28:57;101733.19;;;5.90;87.01
4972;BME280;2501;51.214;6.768;2023-02-01T01:31:28;101740.03;;;5.88;85.71
4972;BME280;2501;51.214;6.768;2023-02-01T01:33:58;101738.94;;;5.83;85.69
4972;BME280;2501;51.214;6.768;2023-02-01T01:36:28;101737.03;;;5.79;85.56
4972;BME280;2501;51.214;6.768;2023-02-01T01:38:56;101743.66;;;5.71;85.07
4972;BME280;2501;51.214;6.768;2023-02-01T01:41:28;101740.09;;;5.69;84.72
4972;BME280;2501;51.214;6.768;2023-02-01T01:44:03;101741.81;;;5.68;85.08
4972;BME280;2501;51.214;6.768;2023-02-01T01:46:35;101742.44;;;5.63;84.60
4972;BME280;2501;51.214;6.768;2023-02-01T01:49:08;101754.78;;;5.67;84.65
4972;BME280;2501;51.214;6.768;2023-02-01T01:51:40;101748.69;;;5.66;84.02
4972;BME280;2501;51.214;6.768;2023-02-01T01:54:13;101729.25;;;5.58;84.08
4972;BME280;2501;51.214;6.768;2023-02-01T01:56:45;101717.81;;;5.54;84.27
4972;BME280;2501;51.214;6.768;2023-02-01T01:59:18;101717.25;;;5.62;84.28
4972;BME280;2501;51.214;6.768;2023-02-01T02:01:47;101717.94;;;5.57;83.80
4972;BME280;2501;51.214;6.768;2023-02-01T02:04:16;101717.38;;;5.44;83.47
4972;BME280;2501;51.214;6.768;2023-02-01T02:06:47;101709.50;;;5.42;83.43
4972;BME280;2501;51.214;6.768;2023-02-01T02:09:18;101708.81;;;5.46;84.33
4972;BME280;2501;51.214;6.768;2023-02-01T02:11:46;101695.94;;;5.49;83.93
4972;BME280;2501;51.214;6.768;2023-02-01T02:14:19;101698.41;;;5.46;83.93
4972;BME280;2501;51.214;6.768;2023-02-01T02:17:12;101700.88;;;5.43;84.48
4972;BME280;2501;51.214;6.768;2023-02-01T02:20:19;101701.38;;;5.55;83.52
4972;BME280;2501;51.214;6.768;2023-02-01T02:26:27;101697.50;;;5.25;84.27
4972;BME280;2501;51.214;6.768;2023-02-01T02:32:52;101706.38;;;5.30;84.04
4972;BME280;2501;51.214;6.768;2023-02-01T02:35:36;101693.13;;;5.24;83.92
4972;BME280;2501;51.214;6.768;2023-02-01T02:38:17;101692.28;;;5.25;84.18
4972;BME280;2501;51.214;6.768;2023-02-01T02:40:49;101695.47;;;5.18;84.24
4972;BME280;2501;51.214;6.768;2023-02-01T02:43:24;101693.88;;;5.01;84.85
4972;BME280;2501;51.214;6.768;2023-02-01T02:46:18;101686.06;;;5.01;85.51
4972;BME280;2501;51.214;6.768;2023-02-01T02:49:05;101681.25;;;5.10;85.23
4972;BME280;2501;51.214;6.768;2023-02-01T02:51:43;101673.00;;;4.99;85.38
4972;BME280;2501;51.214;6.768;2023-02-01T02:54:30;101678.13;;;4.98;86.05
4972;BME280;2501;51.214;6.768;2023-02-01T02:57:20;101669.31;;;4.94;85.90
4972;BME280;2501;51.214;6.768;2023-02-01T03:00:06;101683.34;;;4.98;86.00
4972;BME280;2501;51.214;6.768;2023-02-01T03:02:49;101684.00;;;4.94;86.39
4972;BME280;2501;51.214;6.768;2023-02-01T03:05:32;101679.69;;;4.94;86.69
4972;BME280;2501;51.214;6.768;2023-02-01T03:08:10;101684.41;;;5.03;86.73
4972;BME280;2501;51.214;6.768;2023-02-01T03:10:48;101685.34;;;5.05;86.57
4972;BME280;2501;51.214;6.768;2023-02-01T03:13:25;101689.25;;;5.14;86.41
4972;BME280;2501;51.214;6.768;2023-02-01T03:15:58;101668.50;;;5.16;86.12
4972;BME280;2501;51.214;6.768;2023-02-01T03:18:33;101673.84;;;5.19;86.43
4972;BME280;2501;51.214;6.768;2023-02-01T03:21:08;101664.75;;;5.09;86.81
4972;BME280;2501;51.214;6.768;2023-02-01T03:23:42;101674.53;;;5.15;86.60
4972;BME280;2501;51.214;6.768;2023-02-01T03:26:13;101667.56;;;5.14;86.57
4972;BME280;2501;51.214;6.768;2023-02-01T03:28:48;101672.25;;;5.02;87.33
4972;BME280;2501;51.214;6.768;2023-02-01T03:31:17;101661.28;;;5.30;87.15
4972;BME280;2501;51.214;6.768;2023-02-01T03:33:46;101666.34;;;5.27;86.69
4972;BME280;2501;51.214;6.768;2023-02-01T03:36:21;101656.00;;;5.28;86.40
4972;BME280;2501;51.214;6.768;2023-02-01T03:39:02;101654.31;;;5.29;86.37
4972;BME280;2501;51.214;6.768;2023-02-01T03:41:35;101653.16;;;5.43;85.79
4972;BME280;2501;51.214;6.768;2023-02-01T03:44:10;101650.06;;;5.51;85.58
4972;BME280;2501;51.214;6.768;2023-02-01T03:46:42;101642.34;;;5.54;84.55
4972;BME280;2501;51.214;6.768;2023-02-01T03:49:18;101643.34;;;5.58;84.09
4972;BME280;2501;51.214;6.768;2023-02-01T03:51:50;101644.25;;;5.58;84.07
4972;BME280;2501;51.214;6.768;2023-02-01T03:54:21;101647.81;;;5.60;83.60
4972;BME280;2501;51.214;6.768;2023-02-01T03:56:52;101645.66;;;5.50;83.69
4972;BME280;2501;51.214;6.768;2023-02-01T03:59:22;101665.47;;;5.68;82.91
4972;BME280;2501;51.214;6.768;2023-02-01T04:01:51;101664.44;;;5.64;82.92
4972;BME280;2501;51.214;6.768;2023-02-01T04:04:19;101662.13;;;5.72;82.44
4972;BME280;2501;51.214;6.768;2023-02-01T04:06:48;101649.59;;;5.62;82.72
4972;BME280;2501;51.214;6.768;2023-02-01T04:09:17;101631.19;;;5.57;83.30
4972;BME280;2501;51.214;6.768;2023-02-01T04:11:48;101639.88;;;5.57;83.53
4972;BME280;2501;51.214;6.768;2023-02-01T04:14:17;101631.94;;;5.54;83.67
4972;BME280;2501;51.214;6.768;2023-02-01T04:16:45;101624.03;;;5.51;83.81
4972;BME280;2501;51.214;6.768;2023-02-01T04:19:14;101623.91;;;5.48;83.88
4972;BME280;2501;51.214;6.768;2023-02-01T04:21:42;101612.47;;;5.45;84.36
4972;BME280;2501;51.214;6.768;2023-02-01T04:24:11;101598.50;;;5.43;84.66
4972;BME280;2501;51.214;6.768;2023-02-01T04:26:39;101576.63;;;5.38;84.85
4972;BME280;2501;51.214;6.768;2023-02-01T04:29:11;101595.44;;;5.31;85.26
4972;BME280;2501;51.214;6.768;2023-02-01T04:31:40;101597.22;;;5.32;85.40
4972;BME280;2501;51.214;6.768;2023-02-01T04:34:08;101601.25;;;5.25;85.78
4972;BME280;2501;51.214;6.768;2023-02-01T04:36:36;101604.63;;;5.22;86.33
4972;BME280;2501;51.214;6.768;2023-02-01T04:39:05;101597.09;;;5.29;86.36
4972;BME280;2501;51.214;6.768;2023-02-01T04:41:33;101612.31;;;5.19;86.31
4972;BME280;2501;51.214;6.768;2023-02-01T04:44:01;101615.75;;;5.18;86.44
4972;BME280;2501;51.214;6.768;2023-02-01T04:46:32;101619.94;;;5.15;86.93
4972;BME280;2501;51.214;6.768;2023-02-01T04:49:01;101616.44;;;5.14;87.00
4972;BME280;2501;51.214;6.768;2023-02-01T04:51:30;101616.38;;;5.13;87.28
4972;BME280;2501;51.214;6.768;2023-02-01T04:53:58;101613.91;;;5.16;87.21
4972;BME280;2501;51.214;6.768;2023-02-01T04:56:27;101627.66;;;5.13;87.16
4972;BME280;2501;51.214;6.768;2023-02-01T04:58:55;101630.34;;;5.15;86.69
4972;BME280;2501;51.214;6.768;2023-02-01T05:01:24;101636.22;;;5.11;86.91
4972;BME280;2501;51.214;6.768;2023-02-01T05:03:55;101624.03;;;5.10;86.99
4972;BME280;2501;51.214;6.768;2023-02-01T05:06:23;101631.03;;;5.11;87.10
4972;BME280;2501;51.214;6.768;2023-02-01T05:08:51;101639.63;;;5.10;86.94
4972;BME280;2501;51.214;6.768;2023-02-01T05:11:20;101629.50;;;5.16;86.75
4972;BME280;2501;51.214;6.768;2023-02-01T05:14:01;101628.50;;;5.12;86.82
4972;BME280;2501;51.214;6.768;2023-02-01T05:16:29;101640.53;;;5.10;86.66
4972;BME280;2501;51.214;6.768;2023-02-01T05:19:00;101635.94;;;5.05;86.88
4972;BME280;2501;51.214;6.768;2023-02-01T05:21:29;101628.88;;;5.01;87.06
4972;BME280;2501;51.214;6.768;2023-02-01T05:23:57;101632.22;;;4.98;87.40
4972;BME280;2501;51.214;6.768;2023-02-01T05:26:39;101634.06;;;5.01;87.19
4972;BME280;2501;51.214;6.768;2023-02-01T05:29:08;101652.06;;;4.96;87.44
4972;BME280;2501;51.214;6.768;2023-02-01T05:31:37;101647.81;;;4.98;87.49
4972;BME280;2501;51.214;6.768;2023-02-01T05:34:09;101646.78;;;4.95;87.77
4972;BME280;2501;51.214;6.768;2023-02-01T05:36:37;101643.25;;;4.93;87.80
4972;BME280;2501;51.214;6.768;2023-02-01T05:39:06;101646.03;;;4.97;87.64
4972;BME280;2501;51.214;6.768;2023-02-01T05:41:36;101646.03;;;4.97;87.62
4972;BME280;2501;51.214;6.768;2023-02-01T05:44:04;101631.19;;;4.95;87.60
4972;BME280;2501;51.214;6.768;2023-02-01T05:46:34;101631.06;;;4.92;87.78
4972;BME280;2501;51.214;6.768;2023-02-01T05:49:02;101630.94;;;4.88;87.66
4972;BME280;2501;51.214;6.768;2023-02-01T05:51:33;101634.75;;;4.97;87.52
4972;BME280;2501;51.214;6.768;2023-02-01T05:54:02;101630.19;;;4.91;87.62
4972;BME280;2501;51.214;6.768;2023-02-01T05:56:30;101634.25;;;4.84;87.92
4972;BME280;2501;51.214;6.768;2023-02-01T05:58:59;101636.88;;;4.86;88.15
4972;BME280;2501;51.214;6.768;2023-02-01T06:01:27;101637.69;;;4.85;88.33
4972;BME280;2501;51.214;6.768;2023-02-01T06:03:55;101622.16;;;4.86;88.11
4972;BME280;2501;51.214;6.768;2023-02-01T06:06:24;101620.41;;;4.85;88.10
4972;BME280;2501;51.214;6.768;2023-02-01T06:08:55;101615.91;;;4.81;88.52
4972;BME280;2501;51.214;6.768;2023-02-01T06:11:24;101618.25;;;4.75;88.67
4972;BME280;2501;51.214;6.768;2023-02-01T06:13:53;101635.75;;;4.79;88.71
4972;BME280;2501;51.214;6.768;2023-02-01T06:16:21;101639.53;;;4.87;88.67
4972;BME280;2501;51.214;6.768;2023-02-01T06:18:50;101643.38;;;4.96;88.26
4972;BME280;2501;51.214;6.768;2023-02-01T06:21:19;101647.25;;;5.05;88.00
4972;BME280;2501;51.214;6.768;2023-02-01T06:23:51;101646.50;;;5.08;87.32
4972;BME280;2501;51.214;6.768;2023-02-01T06:26:22;101650.78;;;5.07;86.83
4972;BME280;2501;51.214;6.768;2023-02-01T06:28:50;101637.25;;;5.14;86.70
4972;BME280;2501;51.214;6.768;2023-02-01T06:31:19;101649.41;;;5.15;86.74
4972;BME280;2501;51.214;6.768;2023-02-01T06:33:48;101644.16;;;5.14;86.36
4972;BME280;2501;51.214;6.768;2023-02-01T06:36:16;101653.16;;;5.22;86.17
4972;BME280;2501;51.214;6.768;2023-02-01T06:38:46;101653.16;;;5.22;86.19
4972;BME280;2501;51.214;6.768;2023-02-01T06:41:15;101647.19;;;5.24;86.13
4972;BME280;2501;51.214;6.768;2023-02-01T06:43:48;101658.00;;;5.34;85.84
4972;BME280;2501;51.214;6.768;2023-02-01T06:46:16;101646.88;;;5.38;85.61
4972;BME280;2501;51.214;6.768;2023-02-01T06:48:45;101633.75;;;5.35;85.40
4972;BME280;2501;51.214;6.768;2023-02-01T06:51:20;101641.09;;;5.45;85.07
4972;BME280;2501;51.214;6.768;2023-02-01T06:53:49;101640.28;;;5.46;84.55
4972;BME280;2501;51.214;6.768;2023-02-01T06:56:18;101637.75;;;5.47;84.62
4972;BME280;2501;51.214;6.768;2023-02-01T06:58:49;101638.44;;;5.43;84.61
4972;BME280;2501;51.214;6.768;2023-02-01T07:01:18;101647.13;;;5.44;85.07
4972;BME280;2501;51.214;6.768;2023-02-01T07:03:47;101651.38;;;5.42;85.06
4972;BME280;2501;51.214;6.768;2023-02-01T07:06:17;101648.28;;;5.50;85.03
4972;BME280;2501;51.214;6.768;2023-02-01T07:08:45;101655.41;;;5.56;84.72
4972;BME280;2501;51.214;6.768;2023-02-01T07:11:14;101642.31;;;5.53;84.75
4972;BME280;2501;51.214;6.768;2023-02-01T07:13:44;101654.03;;;5.64;84.52
4972;BME280;2501;51.214;6.768;2023-02-01T07:16:17;101663.28;;;5.57;84.53
4972;BME280;2501;51.214;6.768;2023-02-01T07:18:46;101668.50;;;5.57;84.25
4972;BME280;2501;51.214;6.768;2023-02-01T07:21:15;101674.44;;;5.76;84.21
4972;BME280;2501;51.214;6.768;2023-02-01T07:23:43;101669.09;;;5.73;84.01
4972;BME280;2501;51.214;6.768;2023-02-01T07:26:13;101660.56;;;5.54;84.52
4972;BME280;2501;51.214;6.768;2023-02-01T07:28:42;101673.75;;;5.59;84.22
4972;BME280;2501;51.214;6.768;2023-02-01T07:31:16;101671.50;;;5.67;84.21
4972;BME280;2501;51.214;6.768;2023-02-01T07:33:47;101671.50;;;5.67;84.13
4972;BME280;2501;51.214;6.768;2023-02-01T07:36:17;101681.56;;;5.59;84.09
4972;BME280;2501;51.214;6.768;2023-02-01T07:38:46;101670.22;;;5.57;84.44
4972;BME280;2501;51.214;6.768;2023-02-01T07:41:16;101661.25;;;5.71;84.20
4972;BME280;2501;51.214;6.768;2023-02-01T07:43:44;101668.75;;;5.64;84.25
4972;BME280;2501;51.214;6.768;2023-02-01T07:46:16;101675.72;;;5.65;84.42
4972;BME280;2501;51.214;6.768;2023-02-01T07:48:44;101679.44;;;5.70;84.14
4972;BME280;2501;51.214;6.768;2023-02-01T07:51:15;101675.13;;;5.72;83.71
4972;BME280;2501;51.214;6.768;2023-02-01T07:53:44;101677.16;;;5.79;83.88
4972;BME280;2501;51.214;6.768;2023-02-01T07:56:15;101683.91;;;5.74;83.29
4972;BME280;2501;51.214;6.768;2023-02-01T07:58:47;101672.91;;;5.81;83.67
4972;BME280;2501;51.214;6.768;2023-02-01T08:01:20;101680.72;;;5.81;83.34
4972;BME280;2501;51.214;6.768;2023-02-01T08:03:47;101681.91;;;5.67;83.57
4972;BME280;2501;51.214;6.768;2023-02-01T08:06:16;101681.75;;;5.64;84.08
4972;BME280;2501;51.214;6.768;2023-02-01T08:08:45;101673.56;;;5.75;84.07
4972;BME280;2501;51.214;6.768;2023-02-01T08:11:13;101673.63;;;5.77;83.83
4972;BME280;2501;51.214;6.768;2023-02-01T08:13:42;101673.63;;;5.77;84.02
4972;BME280;2501;51.214;6.768;2023-02-01T08:16:12;101689.94;;;5.73;83.71
4972;BME280;2501;51.214;6.768;2023-02-01T08:18:44;101683.81;;;5.71;83.91
4972;BME280;2501;51.214;6.768;2023-02-01T08:21:14;101673.63;;;5.77;84.04
4972;BME280;2501;51.214;6.768;2023-02-01T08:23:44;101684.28;;;5.83;83.78
4972;BME280;2501;51.214;6.768;2023-02-01T08:26:16;101695.97;;;5.72;83.97
4972;BME280;2501;51.214;6.768;2023-02-01T08:28:47;101706.88;;;5.84;83.88
4972;BME280;2501;51.214;6.768;2023-02-01T08:31:18;101692.03;;;5.60;84.00
4972;BME280;2501;51.214;6.768;2023-02-01T08:33:52;101706.56;;;5.76;83.81
4972;BME280;2501;51.214;6.768;2023-02-01T08:36:22;101703.03;;;5.95;83.57
4972;BME280;2501;51.214;6.768;2023-02-01T08:38:51;101731.16;;;5.83;83.37
4972;BME280;2501;51.214;6.768;2023-02-01T08:41:22;101721.69;;;5.85;83.58
4972;BME280;2501;51.214;6.768;2023-02-01T08:43:51;101727.28;;;5.94;83.31
4972;BME280;2501;51.214;6.768;2023-02-01T08:46:20;101726.66;;;6.00;83.23
4972;BME280;2501;51.214;6.768;2023-02-01T08:48:52;101730.81;;;5.75;83.68
4972;BME280;2501;51.214;6.768;2023-02-01T08:51:22;101730.72;;;5.93;83.78
4972;BME280;2501;51.214;6.768;2023-02-01T08:53:51;101733.63;;;5.80;83.49
4972;BME280;2501;51.214;6.768;2023-02-01T08:56:20;101742.34;;;6.01;83.49
4972;BME280;2501;51.214;6.768;2023-02-01T08:58:48;101736.47;;;6.07;82.75
4972;BME280;2501;51.214;6.768;2023-02-01T09:01:17;101725.75;;;5.99;82.91
4972;BME280;2501;51.214;6.768;2023-02-01T09:03:46;101721.41;;;6.20;82.45
4972;BME280;2501;51.214;6.768;2023-02-01T09:06:17;101730.25;;;6.25;81.77
4972;BME280;2501;51.214;6.768;2023-02-01T09:08:45;101717.53;;;6.11;81.82
4972;BME280;2501;51.214;6.768;2023-02-01T09:11:16;101729.16;;;6.19;81.43
4972;BME280;2501;51.214;6.768;2023-02-01T09:13:46;101706.06;;;6.06;81.72
4972;BME280;2501;51.214;6.768;2023-02-01T09:16:15;101697.69;;;5.92;81.89
4972;BME280;2501;51.214;6.768;2023-02-01T09:18:43;101718.31;;;5.87;82.29
4972;BME280;2501;51.214;6.768;2023-02-01T09:21:12;101701.13;;;5.91;82.48
4972;BME280;2501;51.214;6.768;2023-02-01T09:23:43;101719.47;;;5.94;82.16
4972;BME280;2501;51.214;6.768;2023-02-01T09:26:14;101700.59;;;6.00;82.07
4972;BME280;2501;51.214;6.768;2023-02-01T09:28:43;101712.94;;;6.04;82.05
4972;BME280;2501;51.214;6.768;2023-02-01T09:31:11;101722.56;;;6.06;81.86
4972;BME280;2501;51.214;6.768;2023-02-01T09:33:39;101706.69;;;6.00;81.98
4972;BME280;2501;51.214;6.768;2023-02-01T09:36:08;101706.44;;;5.94;82.21
4972;BME280;2501;51.214;6.768;2023-02-01T09:38:36;101708.94;;;6.13;82.21
4972;BME280;2501;51.214;6.768;2023-02-01T09:41:26;101689.66;;;6.31;81.42
4972;BME280;2501;51.214;6.768;2023-02-01T09:44:05;101701.31;;;6.40;80.84
4972;BME280;2501;51.214;6.768;2023-02-01T09:46:34;101699.72;;;6.21;80.99
4972;BME280;2501;51.214;6.768;2023-02-01T09:49:08;101697.59;;;6.34;81.43
4972;BME280;2501;51.214;6.768;2023-02-01T09:51:41;101699.25;;;6.32;81.10
4972;BME280;2501;51.214;6.768;2023-02-01T09:54:14;101702.81;;;6.34;81.41
4972;BME280;2501;51.214;6.768;2023-02-01T09:56:48;101712.56;;;6.39;81.07
4972;BME280;2501;51.214;6.768;2023-02-01T09:59:29;101688.19;;;6.15;81.47
4972;BME280;2501;51.214;6.768;2023-02-01T10:02:02;101692.69;;;6.19;81.86
4972;BME280;2501;51.214;6.768;2023-02-01T10:04:31;101701.19;;;6.15;81.66
4972;BME280;2501;51.214;6.768;2023-02-01T10:07:10;101699.28;;;6.11;82.19
4972;BME280;2501;51.214;6.768;2023-02-01T10:09:50;101689.88;;;6.37;81.59
4972;BME280;2501;51.214;6.768;2023-02-01T10:15:25;101686.97;;;6.29;81.39
4972;BME280;2501;51.214;6.768;2023-02-01T10:18:13;101699.94;;;6.27;81.37
4972;BME280;2501;51.214;6.768;2023-02-01T10:20:52;101689.75;;;6.56;80.68
4972;BME280;2501;51.214;6.768;2023-02-01T10:23:38;101682.13;;;6.62;79.79
4972;BME280;2501;51.214;6.768;2023-02-01T10:26:18;101695.06;;;6.83;79.49
4972;BME280;2501;51.214;6.768;2023-02-01T10:28:51;101679.91;;;6.96;78.93
4972;BME280;2501;51.214;6.768;2023-02-01T10:31:22;101681.75;;;6.99;78.26
4972;BME280;2501;51.214;6.768;2023-02-01T10:33:56;101684.22;;;6.96;78.72
4972;BME280;2501;51.214;6.768;2023-02-01T10:36:29;101678.25;;;7.24;78.06
4972;BME280;2501;51.214;6.768;2023-02-01T10:39:01;101679.06;;;6.97;77.42
4972;BME280;2501;51.214;6.768;2023-02-01T10:41:34;101673.44;;;6.85;78.37
4972;BME280;2501;51.214;6.768;2023-02-01T10:44:11;101693.63;;;6.67;78.74
4972;BME280;2501;51.214;6.768;2023-02-01T10:46:41;101689.69;;;6.78;78.03
4972;BME280;2501;51.214;6.768;2023-02-01T10:49:15;101669.44;;;6.71;77.93
4972;BME280;2501;51.214;6.768;2023-02-01T10:51:48;101678.88;;;6.68;78.02
4972;BME280;2501;51.214;6.768;2023-02-01T10:54:20;101683.91;;;6.63;78.13
4972;BME280;2501;51.214;6.768;2023-02-01T10:56:49;101681.09;;;6.81;77.57
4972;BME280;2501;51.214;6.768;2023-02-01T10:59:25;101684.22;;;6.71;77.60
4972;BME280;2501;51.214;6.768;2023-02-01T11:01:59;101683.88;;;6.85;77.33
4972;BME280;2501;51.214;6.768;2023-02-01T11:04:30;101674.81;;;6.99;76.34
4972;BME280;2501;51.214;6.768;2023-02-01T11:07:06;101675.69;;;7.00;75.98
4972;BME280;2501;51.214;6.768;2023-02-01T11:09:39;101671.41;;;7.02;75.50
4972;BME280;2501;51.214;6.768;2023-02-01T11:12:23;101665.09;;;6.95;75.34
4972;BME280;2501;51.214;6.768;2023-02-01T11:15:02;101653.63;;;6.90;75.55
4972;BME280;2501;51.214;6.768;2023-02-01T11:17:33;101665.19;;;6.73;76.00
4972;BME280;2501;51.214;6.768;2023-02-01T11:20:09;101671.94;;;6.68;76.04
4972;BME280;2501;51.214;6.768;2023-02-01T11:22:45;101674.25;;;6.84;75.83
4972;BME280;2501;51.214;6.768;2023-02-01T11:25:16;101661.00;;;6.78;75.55
4972;BME280;2501;51.214;6.768;2023-02-01T11:27:46;101643.97;;;6.88;75.91
4972;BME280;2501;51.214;6.768;2023-02-01T11:30:24;101660.69;;;6.94;75.77
4972;BME280;2501;51.214;6.768;2023-02-01T11:32:56;101637.41;;;6.99;75.22
4972;BME280;2501;51.214;6.768;2023-02-01T11:35:28;101646.47;;;7.10;74.95
4972;BME280;2501;51.214;6.768;2023-02-01T11:37:58;101635.78;;;7.03;74.54
4972;BME280;2501;51.214;6.768;2023-02-01T11:40:35;101640.66;;;6.92;74.85
4972;BME280;2501;51.214;6.768;2023-02-01T11:43:11;101624.47;;;7.02;74.34
4972;BME280;2501;51.214;6.768;2023-02-01T11:45:53;101629.28;;;6.90;74.49
4972;BME280;2501;51.214;6.768;2023-02-01T11:48:24;101631.94;;;6.91;74.74
4972;BME280;2501;51.214;6.768;2023-02-01T11:51:02;101624.03;;;7.15;73.96
4972;BME280;2501;51.214;6.768;2023-02-01T11:53:44;101624.41;;;7.01;73.94
4972;BME280;2501;51.214;6.768;2023-02-01T11:56:23;101620.97;;;7.02;74.30
4972;BME280;2501;51.214;6.768;2023-02-01T11:59:08;101599.44;;;7.07;74.42
4972;BME280;2501;51.214;6.768;2023-02-01T12:02:02;101603.22;;;7.17;74.02
4972;BME280;2501;51.214;6.768;2023-02-01T12:04:53;101609.09;;;7.11;74.08
4972;BME280;2501;51.214;6.768;2023-02-01T12:07:31;101584.84;;;7.14;74.07
4972;BME280;2501;51.214;6.768;2023-02-01T12:10:19;101582.06;;;7.34;73.49
4972;BME280;2501;51.214;6.768;2023-02-01T12:12:59;101593.13;;;7.27;73.26
4972;BME280;2501;51.214;6.768;2023-02-01T12:15:41;101586.16;;;7.26;73.18
4972;BME280;2501;51.214;6.768;2023-02-01T12:18:37;101583.25;;;7.17;73.47
4972;BME280;2501;51.214;6.768;2023-02-01T12:21:29;101587.78;;;7.23;73.67
4972;BME280;2501;51.214;6.768;2023-02-01T12:24:26;101591.69;;;7.10;73.93
4972;BME280;2501;51.214;6.768;2023-02-01T12:27:12;101598.50;;;7.05;74.53
4972;BME280;2501;51.214;6.768;2023-02-01T12:29:55;101600.63;;;7.17;74.38
4972;BME280;2501;51.214;6.768;2023-02-01T12:32:46;101578.69;;;7.12;74.32
4972;BME280;2501;51.214;6.768;2023-02-01T12:35:38;101592.69;;;7.14;74.91
4972;BME280;2501;51.214;6.768;2023-02-01T12:38:20;101581.34;;;7.13;74.93
4972;BME280;2501;51.214;6.768;2023-02-01T12:41:03;101567.13;;;7.04;75.22
4972;BME280;2501;51.214;6.768;2023-02-01T12:43:39;101570.19;;;7.17;74.82
4972;BME280;2501;51.214;6.768;2023-02-01T12:46:12;101576.84;;;7.08;74.97
4972;BME280;2501;51.214;6.768;2023-02-01T12:48:50;101549.38;;;7.19;75.07
4972;BME280;2501;51.214;6.768;2023-02-01T12:51:27;101554.38;;;7.13;75.25
4972;BME280;2501;51.214;6.768;2023-02-01T12:54:01;101543.88;;;7.10;75.67
4972;BME280;2501;51.214;6.768;2023-02-01T12:56:34;101553.81;;;7.21;75.42
4972;BME280;2501;51.214;6.768;2023-02-01T12:59:19;101540.50;;;7.14;75.58
4972;BME280;2501;51.214;6.768;2023-02-01T13:01:54;101547.25;;;7.07;75.74
4972;BME280;2501;51.214;6.768;2023-02-01T13:04:28;101532.44;;;7.06;75.92
4972;BME280;2501;51.214;6.768;2023-02-01T13:07:07;101529.91;;;7.08;75.97
4972;BME280;2501;51.214;6.768;2023-02-01T13:09:43;101543.78;;;7.07;76.05
4972;BME280;2501;51.214;6.768;2023-02-01T13:12:15;101541.53;;;7.19;75.98
4972;BME280;2501;51.214;6.768;2023-02-01T13:14:46;101527.78;;;7.23;75.56
4972;BME280;2501;51.214;6.768;2023-02-01T13:17:19;101533.22;;;7.30;74.91
4972;BME280;2501;51.214;6.768;2023-02-01T13:19:53;101530.56;;;7.29;74.40
4972;BME280;2501;51.214;6.768;2023-02-01T13:22:28;101525.75;;;7.41;74.42
4972;BME280;2501;51.214;6.768;2023-02-01T13:25:00;101542.09;;;7.36;74.55
4972;BME280;2501;51.214;6.768;2023-02-01T13:27:30;101535.88;;;7.32;74.56
4972;BME280;2501;51.214;6.768;2023-02-01T13:30:01;101530.56;;;7.29;74.97
4972;BME280;2501;51.214;6.768;2023-02-01T13:32:48;101530.56;;;7.29;75.23
4972;BME280;2501;51.214;6.768;2023-02-01T13:38:25;101521.44;;;7.43;73.91
4972;BME280;2501;51.214;6.768;2023-02-01T13:41:07;101534.34;;;7.39;74.33
4972;BME280;2501;51.214;6.768;2023-02-01T13:43:41;101515.00;;;7.32;75.00
4972;BME280;2501;51.214;6.768;2023-02-01T13:46:13;101533.22;;;7.30;75.01
4972;BME280;2501;51.214;6.768;2023-02-01T13:48:47;101526.53;;;7.39;74.82
4972;BME280;2501;51.214;6.768;2023-02-01T13:51:28;101523.03;;;7.38;74.52
4972;BME280;2501;51.214;6.768;2023-02-01T13:54:03;101521.25;;;7.37;74.41
4972;BME280;2501;51.214;6.768;2023-02-01T13:56:41;101518.53;;;7.34;74.15
4972;BME280;2501;51.214;6.768;2023-02-01T14:02:44;101516.25;;;7.43;73.82
4972;BME280;2501;51.214;6.768;2023-02-01T14:08:14;101533.19;;;7.57;73.31
4972;BME280;2501;51.214;6.768;2023-02-01T14:10:54;101524.06;;;7.43;73.07
4972;BME280;2501;51.214;6.768;2023-02-01T14:13:27;101532.25;;;7.55;72.72